Details From SBCX - Campo Dos Bugres
To SBBR - Brasilia Presidente Juscelino Kubitsch
Flight Number -
Tags decoded
Created
Modified
Stats Distance 820 nm / 1,520 km
Max Altitude 0 ft / 0 m
Waypoints 2
Social Downloads 0
Likes 0
Share VATSIM

Download

Looking for another format? Having issues loading an existing format? Contact us
Advertisement - Login to hide

Notes

Requested: SBCX UZ5 SBBR Unmatched points: UZ5

Route

SBCX SBBR

ID Type Via Altitude Latitude Longitude Leg Dist Tot Dist Heading (true) Name
O SBCX APT - 0 ft / 0 m -29.19706˚ -51.18753˚ - 0 nm - Campo Dos Bugres
O SBBR APT - 0 ft / 0 m -15.87110˚ -47.91863˚ 820 nm 820 nm 13° / 12° Brasilia Presidente Juscelino Kubitsch

Altitude Profile

Advertisement - Login to hide

Weather


0- 5 10 15 20 25 30 35+ Temperature / ° C

Clouds and Precipitation
Forecast for 2018-05-22 12:00 UTC. Updated 5 hours ago

Ground ~20,000 ft ~40,000 ft Winds

SBCX

Details ICAO SBCX (CXJ)
Name Campo Dos Bugres
Region Brazil
Timezone America/Sao_Paulo (UTC-3.0)
Stats Elevation 2,472 ft / 753 m (AMSL)
Location -29.197064° -51.187532°
Runways 1
Magnetic Variation 17.258° W

METAR

SBCX 221500Z 27004KT 9999 BKN025 11/06 Q1021

Decode

TAF

Not found

Departure Runways

ID Width Length Bearing (true) Bearing (mag) Surface Threshold Offset Overrun Length
15 98 ft / 30 m 6,469 ft / 1,972 m 135.91° 153.17° Asphalt 902 ft / 275 m 0 ft / 0 m
33 98 ft / 30 m 6,469 ft / 1,972 m 315.91° 333.17° Asphalt 0 ft / 0 m 210 ft / 64 m

SBBR

Details ICAO SBBR (BSB)
Name Brasilia Presidente Juscelino Kubitsch
Region Brazil
Timezone America/Sao_Paulo (UTC-3.0)
Stats Elevation 3,479 ft / 1,060 m (AMSL)
Location -15.871101° -47.918626°
Runways 2
Magnetic Variation 21.593° W

METAR

SBBR 221600Z 08006KT 9999 FEW030 25/11 Q1021

Decode

TAF

TAF SBBR 220800Z 2212/2312 06005KT CAVOK TX26/2218Z TN10/2309Z BECMG 2218/2220 18005KT 7000 SCT030 BECMG 2300/2302 20005KT CAVOK BECMG 2306/2308 19005KT RMK PDE

Decode

Destination Runways

ID Width Length Bearing (true) Bearing (mag) Surface Threshold Offset Overrun Length
11L 148 ft / 45 m 10,493 ft / 3,198 m 86.35° 107.94° Asphalt 0 ft / 0 m 200 ft / 61 m
11R 148 ft / 45 m 10,839 ft / 3,304 m 86.00° 107.59° Asphalt 2,635 ft / 803 m 200 ft / 61 m
29L 148 ft / 45 m 10,839 ft / 3,304 m 265.99° 287.58° Asphalt 0 ft / 0 m 200 ft / 61 m
29R 148 ft / 45 m 10,493 ft / 3,198 m 266.34° 287.93° Asphalt 0 ft / 0 m 200 ft / 61 m

Approach Navaids

Runway Type Ident Frequency Range Bearing (true) Bearing (mag) Slope Elevation
11L Localiser IBR 110.30 MHz 18 nm / 33 km 86.04° 107.63° - 3,445 ft / 1,050 m (AMSL)
11L Glidescope IBR 110.30 MHz 10 nm / 19 km 86.34° 107.94° 3.00° 3,445 ft / 1,050 m (AMSL)
29R Localiser IND 109.30 MHz 18 nm / 33 km 266.28° 287.87° - 3,479 ft / 1,060 m (AMSL)
29R Glidescope IND 109.30 MHz 10 nm / 19 km 266.35° 287.94° 2.96° 3,479 ft / 1,060 m (AMSL)
29R DME IND 109.30 MHz 18 nm / 33 km - - - 3,479 ft / 1,060 m (AMSL)

Popular Alternatives